Terminal Aerodrome Forecast
Issued by NWS Milwaukee/Sullivan, WI

Home | Current Version | Previous Version | Text Only | Print | Product List | Glossary On
Versions: 1 2 3 4 5 6 7 8 9 10 11 12 13 14 15 16 17 18 19 20 21 22 23 24 25 26 27 28 29 30
000
FTUS43 KMKX 201138
TAFMSN
TAF
KMSN 201138Z 2012/2112 14005KT 6SM BR BKN200
     FM201500 15006KT P6SM BKN150
     FM201800 15010G20KT P6SM OVC060
     FM210100 17010G18KT 6SM SHRA BR OVC025 WS020/18045KT
     FM210400 19007KT 4SM SHRA BR OVC035
     FM210600 22005KT 4SM -SHRA BR OVC070
     FM210800 24004KT 4SM BR OVC015=

USA.gov is the U.S. government's official web portal to all federal, state and local government web resources and services.